sensor_id;sensor_type;location;lat;lon;timestamp;P1;durP1;ratioP1;P2;durP2;ratioP2
49071;SDS011;52656;52.610;10.236;2023-03-14T00:02:08;4.53;;;2.15;;
49071;SDS011;52656;52.610;10.236;2023-03-14T00:06:59;6.25;;;2.53;;
49071;SDS011;52656;52.610;10.236;2023-03-14T00:11:52;4.70;;;2.10;;
49071;SDS011;52656;52.610;10.236;2023-03-14T00:14:17;7.68;;;2.65;;
49071;SDS011;52656;52.610;10.236;2023-03-14T00:19:10;6.03;;;1.88;;
49071;SDS011;52656;52.610;10.236;2023-03-14T00:21:36;6.57;;;2.17;;
49071;SDS011;52656;52.610;10.236;2023-03-14T00:24:01;6.53;;;2.20;;
49071;SDS011;52656;52.610;10.236;2023-03-14T00:26:26;7.20;;;2.33;;
49071;SDS011;52656;52.610;10.236;2023-03-14T00:31:18;4.57;;;1.70;;
49071;SDS011;52656;52.610;10.236;2023-03-14T00:33:43;4.45;;;1.88;;
49071;SDS011;52656;52.610;10.236;2023-03-14T00:36:11;6.15;;;1.90;;
49071;SDS011;52656;52.610;10.236;2023-03-14T00:38:38;3.47;;;1.85;;
49071;SDS011;52656;52.610;10.236;2023-03-14T00:41:15;7.15;;;2.17;;
49071;SDS011;52656;52.610;10.236;2023-03-14T00:43:42;2.55;;;1.83;;
49071;SDS011;52656;52.610;10.236;2023-03-14T00:48:33;6.40;;;2.30;;
49071;SDS011;52656;52.610;10.236;2023-03-14T00:50:59;5.05;;;1.67;;
49071;SDS011;52656;52.610;10.236;2023-03-14T00:53:26;4.93;;;1.83;;
49071;SDS011;52656;52.610;10.236;2023-03-14T00:58:17;7.03;;;2.30;;
49071;SDS011;52656;52.610;10.236;2023-03-14T01:03:09;6.03;;;2.42;;
49071;SDS011;52656;52.610;10.236;2023-03-14T01:05:36;4.47;;;1.80;;
49071;SDS011;52656;52.610;10.236;2023-03-14T01:10:27;4.97;;;2.00;;
49071;SDS011;52656;52.610;10.236;2023-03-14T01:12:52;4.22;;;1.80;;
49071;SDS011;52656;52.610;10.236;2023-03-14T01:15:18;5.63;;;1.80;;
49071;SDS011;52656;52.610;10.236;2023-03-14T01:17:43;5.45;;;2.22;;
49071;SDS011;52656;52.610;10.236;2023-03-14T01:20:09;5.50;;;2.00;;
49071;SDS011;52656;52.610;10.236;2023-03-14T01:22:36;8.43;;;1.92;;
49071;SDS011;52656;52.610;10.236;2023-03-14T01:25:04;5.57;;;2.00;;
49071;SDS011;52656;52.610;10.236;2023-03-14T01:27:34;4.35;;;2.28;;
49071;SDS011;52656;52.610;10.236;2023-03-14T01:32:25;5.53;;;1.95;;
49071;SDS011;52656;52.610;10.236;2023-03-14T01:37:16;3.97;;;1.90;;
49071;SDS011;52656;52.610;10.236;2023-03-14T01:39:41;9.50;;;2.08;;
49071;SDS011;52656;52.610;10.236;2023-03-14T01:47:18;3.47;;;1.88;;
49071;SDS011;52656;52.610;10.236;2023-03-14T01:52:16;3.28;;;1.52;;
49071;SDS011;52656;52.610;10.236;2023-03-14T01:55:01;3.33;;;1.90;;
49071;SDS011;52656;52.610;10.236;2023-03-14T01:57:32;6.97;;;2.50;;
49071;SDS011;52656;52.610;10.236;2023-03-14T02:00:04;5.57;;;2.08;;
49071;SDS011;52656;52.610;10.236;2023-03-14T02:02:36;5.15;;;1.90;;
49071;SDS011;52656;52.610;10.236;2023-03-14T02:05:03;4.82;;;1.73;;
49071;SDS011;52656;52.610;10.236;2023-03-14T02:07:31;4.78;;;2.35;;
49071;SDS011;52656;52.610;10.236;2023-03-14T02:10:02;4.95;;;1.95;;
49071;SDS011;52656;52.610;10.236;2023-03-14T02:12:28;9.32;;;2.10;;
49071;SDS011;52656;52.610;10.236;2023-03-14T02:17:19;5.07;;;2.20;;
49071;SDS011;52656;52.610;10.236;2023-03-14T02:22:24;4.10;;;1.70;;
49071;SDS011;52656;52.610;10.236;2023-03-14T02:27:18;6.05;;;2.05;;
49071;SDS011;52656;52.610;10.236;2023-03-14T02:29:52;5.32;;;1.90;;
49071;SDS011;52656;52.610;10.236;2023-03-14T02:32:21;3.65;;;1.80;;
49071;SDS011;52656;52.610;10.236;2023-03-14T02:34:50;3.08;;;1.70;;
49071;SDS011;52656;52.610;10.236;2023-03-14T02:37:20;6.63;;;1.98;;
49071;SDS011;52656;52.610;10.236;2023-03-14T02:39:48;4.93;;;2.00;;
49071;SDS011;52656;52.610;10.236;2023-03-14T02:47:34;3.53;;;1.65;;
49071;SDS011;52656;52.610;10.236;2023-03-14T02:50:08;7.32;;;2.08;;
49071;SDS011;52656;52.610;10.236;2023-03-14T02:52:38;5.47;;;1.92;;
49071;SDS011;52656;52.610;10.236;2023-03-14T02:57:28;7.22;;;1.90;;
49071;SDS011;52656;52.610;10.236;2023-03-14T03:02:22;3.15;;;1.70;;
49071;SDS011;52656;52.610;10.236;2023-03-14T03:07:13;4.80;;;1.67;;
49071;SDS011;52656;52.610;10.236;2023-03-14T03:09:38;8.02;;;2.28;;
49071;SDS011;52656;52.610;10.236;2023-03-14T03:12:03;7.18;;;1.95;;
49071;SDS011;52656;52.610;10.236;2023-03-14T03:16:54;4.50;;;1.80;;
49071;SDS011;52656;52.610;10.236;2023-03-14T03:19:19;5.80;;;1.85;;
49071;SDS011;52656;52.610;10.236;2023-03-14T03:24:11;4.65;;;1.90;;
49071;SDS011;52656;52.610;10.236;2023-03-14T03:26:36;4.20;;;1.85;;
49071;SDS011;52656;52.610;10.236;2023-03-14T03:29:02;2.83;;;1.55;;
49071;SDS011;52656;52.610;10.236;2023-03-14T03:33:53;4.80;;;1.40;;
49071;SDS011;52656;52.610;10.236;2023-03-14T03:36:24;4.78;;;1.67;;
49071;SDS011;52656;52.610;10.236;2023-03-14T03:38:50;6.57;;;2.17;;
49071;SDS011;52656;52.610;10.236;2023-03-14T03:43:41;4.07;;;2.03;;
49071;SDS011;52656;52.610;10.236;2023-03-14T03:46:07;7.30;;;1.95;;
49071;SDS011;52656;52.610;10.236;2023-03-14T03:48:33;3.63;;;1.60;;
49071;SDS011;52656;52.610;10.236;2023-03-14T03:50:59;3.75;;;1.52;;
49071;SDS011;52656;52.610;10.236;2023-03-14T03:53:26;4.38;;;1.70;;
49071;SDS011;52656;52.610;10.236;2023-03-14T03:58:17;3.67;;;1.48;;
49071;SDS011;52656;52.610;10.236;2023-03-14T04:03:08;3.55;;;1.30;;
49071;SDS011;52656;52.610;10.236;2023-03-14T04:05:33;8.77;;;2.00;;
49071;SDS011;52656;52.610;10.236;2023-03-14T04:07:59;6.20;;;1.92;;
49071;SDS011;52656;52.610;10.236;2023-03-14T04:12:50;6.53;;;2.30;;
49071;SDS011;52656;52.610;10.236;2023-03-14T04:15:16;4.57;;;1.48;;
49071;SDS011;52656;52.610;10.236;2023-03-14T04:17:41;4.50;;;1.63;;
49071;SDS011;52656;52.610;10.236;2023-03-14T04:22:35;5.97;;;1.67;;
49071;SDS011;52656;52.610;10.236;2023-03-14T04:27:29;4.90;;;1.67;;
49071;SDS011;52656;52.610;10.236;2023-03-14T04:29:54;3.78;;;1.60;;
49071;SDS011;52656;52.610;10.236;2023-03-14T04:34:45;5.95;;;1.45;;
49071;SDS011;52656;52.610;10.236;2023-03-14T04:39:35;2.67;;;1.60;;
49071;SDS011;52656;52.610;10.236;2023-03-14T04:42:01;3.45;;;1.33;;
49071;SDS011;52656;52.610;10.236;2023-03-14T04:44:26;4.28;;;1.40;;
49071;SDS011;52656;52.610;10.236;2023-03-14T04:46:52;2.75;;;1.25;;
49071;SDS011;52656;52.610;10.236;2023-03-14T04:49:17;3.70;;;1.23;;
49071;SDS011;52656;52.610;10.236;2023-03-14T04:51:42;3.40;;;1.30;;
49071;SDS011;52656;52.610;10.236;2023-03-14T04:56:33;3.45;;;1.20;;
49071;SDS011;52656;52.610;10.236;2023-03-14T04:58:59;3.22;;;1.40;;
49071;SDS011;52656;52.610;10.236;2023-03-14T05:01:24;4.75;;;1.30;;
49071;SDS011;52656;52.610;10.236;2023-03-14T05:03:49;3.60;;;1.10;;
49071;SDS011;52656;52.610;10.236;2023-03-14T05:06:15;4.78;;;1.50;;
49071;SDS011;52656;52.610;10.236;2023-03-14T05:08:40;3.92;;;1.38;;
49071;SDS011;52656;52.610;10.236;2023-03-14T05:11:05;3.30;;;1.65;;
49071;SDS011;52656;52.610;10.236;2023-03-14T05:13:31;2.28;;;0.90;;
49071;SDS011;52656;52.610;10.236;2023-03-14T05:18:28;5.95;;;1.20;;
49071;SDS011;52656;52.610;10.236;2023-03-14T05:23:18;1.80;;;1.00;;
49071;SDS011;52656;52.610;10.236;2023-03-14T05:25:44;3.20;;;1.23;;
49071;SDS011;52656;52.610;10.236;2023-03-14T05:28:09;3.22;;;1.25;;
49071;SDS011;52656;52.610;10.236;2023-03-14T05:30:34;1.60;;;1.00;;
49071;SDS011;52656;52.610;10.236;2023-03-14T05:33:00;3.97;;;1.30;;
49071;SDS011;52656;52.610;10.236;2023-03-14T05:35:25;5.25;;;1.23;;
49071;SDS011;52656;52.610;10.236;2023-03-14T05:37:50;2.60;;;0.87;;
49071;SDS011;52656;52.610;10.236;2023-03-14T05:40:16;3.15;;;1.10;;
49071;SDS011;52656;52.610;10.236;2023-03-14T05:45:06;4.88;;;1.20;;
49071;SDS011;52656;52.610;10.236;2023-03-14T05:47:32;3.03;;;1.15;;
49071;SDS011;52656;52.610;10.236;2023-03-14T05:49:57;3.35;;;1.30;;
49071;SDS011;52656;52.610;10.236;2023-03-14T05:52:22;1.55;;;0.90;;
49071;SDS011;52656;52.610;10.236;2023-03-14T05:54:48;1.60;;;1.00;;
49071;SDS011;52656;52.610;10.236;2023-03-14T05:57:13;4.30;;;1.30;;
49071;SDS011;52656;52.610;10.236;2023-03-14T05:59:38;4.22;;;1.20;;
49071;SDS011;52656;52.610;10.236;2023-03-14T06:04:30;3.85;;;1.10;;
49071;SDS011;52656;52.610;10.236;2023-03-14T06:06:56;3.15;;;1.15;;
49071;SDS011;52656;52.610;10.236;2023-03-14T06:09:21;3.22;;;1.48;;
49071;SDS011;52656;52.610;10.236;2023-03-14T06:11:48;3.10;;;1.10;;
49071;SDS011;52656;52.610;10.236;2023-03-14T06:14:13;5.30;;;1.45;;
49071;SDS011;52656;52.610;10.236;2023-03-14T06:16:39;3.20;;;1.55;;
49071;SDS011;52656;52.610;10.236;2023-03-14T06:19:04;3.55;;;1.20;;
49071;SDS011;52656;52.610;10.236;2023-03-14T06:21:29;2.60;;;0.93;;
49071;SDS011;52656;52.610;10.236;2023-03-14T06:23:55;5.13;;;1.88;;
49071;SDS011;52656;52.610;10.236;2023-03-14T06:26:20;3.75;;;1.25;;
49071;SDS011;52656;52.610;10.236;2023-03-14T06:28:46;3.10;;;1.38;;
49071;SDS011;52656;52.610;10.236;2023-03-14T06:31:12;3.28;;;1.10;;
49071;SDS011;52656;52.610;10.236;2023-03-14T06:33:37;3.80;;;1.58;;
49071;SDS011;52656;52.610;10.236;2023-03-14T06:36:02;8.07;;;2.00;;
49071;SDS011;52656;52.610;10.236;2023-03-14T06:38:28;6.10;;;1.70;;
49071;SDS011;52656;52.610;10.236;2023-03-14T06:40:53;4.93;;;1.60;;
49071;SDS011;52656;52.610;10.236;2023-03-14T06:43:18;6.22;;;1.58;;
49071;SDS011;52656;52.610;10.236;2023-03-14T06:45:44;5.57;;;1.67;;
49071;SDS011;52656;52.610;10.236;2023-03-14T06:48:11;5.10;;;1.38;;
49071;SDS011;52656;52.610;10.236;2023-03-14T06:53:02;6.45;;;1.60;;
49071;SDS011;52656;52.610;10.236;2023-03-14T06:55:27;5.85;;;1.60;;
49071;SDS011;52656;52.610;10.236;2023-03-14T06:57:53;5.32;;;1.50;;
49071;SDS011;52656;52.610;10.236;2023-03-14T07:00:18;6.38;;;1.48;;
49071;SDS011;52656;52.610;10.236;2023-03-14T07:02:44;5.03;;;1.40;;
49071;SDS011;52656;52.610;10.236;2023-03-14T07:05:09;6.00;;;1.50;;
49071;SDS011;52656;52.610;10.236;2023-03-14T07:07:37;5.07;;;1.40;;
49071;SDS011;52656;52.610;10.236;2023-03-14T07:12:28;4.75;;;1.52;;
49071;SDS011;52656;52.610;10.236;2023-03-14T07:14:54;2.30;;;1.67;;
49071;SDS011;52656;52.610;10.236;2023-03-14T07:17:19;4.07;;;1.70;;
49071;SDS011;52656;52.610;10.236;2023-03-14T07:19:44;6.15;;;2.35;;
49071;SDS011;52656;52.610;10.236;2023-03-14T07:22:11;3.17;;;1.40;;
49071;SDS011;52656;52.610;10.236;2023-03-14T07:27:02;6.40;;;1.65;;
49071;SDS011;52656;52.610;10.236;2023-03-14T07:29:27;3.95;;;1.38;;
49071;SDS011;52656;52.610;10.236;2023-03-14T07:31:52;5.18;;;2.00;;
49071;SDS011;52656;52.610;10.236;2023-03-14T07:36:44;7.75;;;1.27;;
49071;SDS011;52656;52.610;10.236;2023-03-14T07:41:34;2.40;;;1.17;;
49071;SDS011;52656;52.610;10.236;2023-03-14T07:44:00;1.75;;;1.00;;
49071;SDS011;52656;52.610;10.236;2023-03-14T07:48:50;3.80;;;1.20;;
49071;SDS011;52656;52.610;10.236;2023-03-14T07:53:41;3.35;;;0.93;;
49071;SDS011;52656;52.610;10.236;2023-03-14T07:56:09;1.77;;;0.90;;
49071;SDS011;52656;52.610;10.236;2023-03-14T07:58:34;2.92;;;0.90;;
49071;SDS011;52656;52.610;10.236;2023-03-14T08:03:25;2.85;;;1.02;;
49071;SDS011;52656;52.610;10.236;2023-03-14T08:08:16;2.65;;;0.85;;
49071;SDS011;52656;52.610;10.236;2023-03-14T08:13:08;2.08;;;0.77;;
49071;SDS011;52656;52.610;10.236;2023-03-14T08:15:34;1.92;;;0.80;;
49071;SDS011;52656;52.610;10.236;2023-03-14T08:20:26;3.95;;;1.25;;
49071;SDS011;52656;52.610;10.236;2023-03-14T08:22:54;4.00;;;1.05;;
49071;SDS011;52656;52.610;10.236;2023-03-14T08:25:22;3.10;;;0.70;;
49071;SDS011;52656;52.610;10.236;2023-03-14T08:30:13;1.55;;;0.60;;
49071;SDS011;52656;52.610;10.236;2023-03-14T08:32:39;1.50;;;0.70;;
49071;SDS011;52656;52.610;10.236;2023-03-14T08:37:31;2.08;;;0.77;;
49071;SDS011;52656;52.610;10.236;2023-03-14T08:39:57;1.33;;;0.77;;
49071;SDS011;52656;52.610;10.236;2023-03-14T08:44:48;0.82;;;0.60;;
49071;SDS011;52656;52.610;10.236;2023-03-14T08:49:38;3.03;;;0.70;;
49071;SDS011;52656;52.610;10.236;2023-03-14T08:54:30;1.13;;;0.68;;
49071;SDS011;52656;52.610;10.236;2023-03-14T08:56:55;1.27;;;0.60;;
49071;SDS011;52656;52.610;10.236;2023-03-14T09:01:46;1.15;;;0.70;;
49071;SDS011;52656;52.610;10.236;2023-03-14T09:06:37;2.60;;;0.80;;
49071;SDS011;52656;52.610;10.236;2023-03-14T09:11:28;1.50;;;0.70;;
49071;SDS011;52656;52.610;10.236;2023-03-14T09:16:18;0.63;;;0.60;;
49071;SDS011;52656;52.610;10.236;2023-03-14T09:18:44;3.85;;;0.68;;
49071;SDS011;52656;52.610;10.236;2023-03-14T09:23:34;0.85;;;0.60;;
49071;SDS011;52656;52.610;10.236;2023-03-14T09:28:25;1.98;;;0.90;;
49071;SDS011;52656;52.610;10.236;2023-03-14T09:33:17;2.30;;;0.70;;
49071;SDS011;52656;52.610;10.236;2023-03-14T09:35:43;1.75;;;0.60;;
49071;SDS011;52656;52.610;10.236;2023-03-14T09:40:34;1.98;;;0.55;;
49071;SDS011;52656;52.610;10.236;2023-03-14T09:43:01;2.35;;;0.75;;
49071;SDS011;52656;52.610;10.236;2023-03-14T09:47:59;1.58;;;0.70;;
49071;SDS011;52656;52.610;10.236;2023-03-14T09:50:27;0.77;;;0.60;;
49071;SDS011;52656;52.610;10.236;2023-03-14T09:53:09;1.50;;;0.70;;
49071;SDS011;52656;52.610;10.236;2023-03-14T09:55:39;1.30;;;0.60;;
49071;SDS011;52656;52.610;10.236;2023-03-14T10:00:35;0.40;;;0.30;;
49071;SDS011;52656;52.610;10.236;2023-03-14T10:05:39;1.75;;;0.60;;
49071;SDS011;52656;52.610;10.236;2023-03-14T10:08:06;2.53;;;0.85;;
49071;SDS011;52656;52.610;10.236;2023-03-14T10:10:34;1.25;;;0.68;;
49071;SDS011;52656;52.610;10.236;2023-03-14T10:15:39;1.60;;;0.90;;
49071;SDS011;52656;52.610;10.236;2023-03-14T10:20:38;0.95;;;0.57;;
49071;SDS011;52656;52.610;10.236;2023-03-14T10:25:42;1.55;;;0.82;;
49071;SDS011;52656;52.610;10.236;2023-03-14T10:28:26;1.55;;;0.98;;
49071;SDS011;52656;52.610;10.236;2023-03-14T10:30:56;2.08;;;0.90;;
49071;SDS011;52656;52.610;10.236;2023-03-14T10:35:56;2.15;;;0.85;;
49071;SDS011;52656;52.610;10.236;2023-03-14T10:38:25;1.15;;;1.00;;
49071;SDS011;52656;52.610;10.236;2023-03-14T10:40:52;1.75;;;1.10;;
49071;SDS011;52656;52.610;10.236;2023-03-14T10:43:20;1.90;;;1.08;;
49071;SDS011;52656;52.610;10.236;2023-03-14T10:45:52;1.58;;;1.00;;
49071;SDS011;52656;52.610;10.236;2023-03-14T10:48:29;1.58;;;1.13;;
49071;SDS011;52656;52.610;10.236;2023-03-14T10:51:03;1.77;;;1.20;;
49071;SDS011;52656;52.610;10.236;2023-03-14T10:53:42;1.50;;;1.33;;
49071;SDS011;52656;52.610;10.236;2023-03-14T10:56:20;1.35;;;1.10;;
49071;SDS011;52656;52.610;10.236;2023-03-14T10:58:48;1.27;;;0.95;;
49071;SDS011;52656;52.610;10.236;2023-03-14T11:01:26;2.15;;;1.10;;
49071;SDS011;52656;52.610;10.236;2023-03-14T11:03:56;2.03;;;1.30;;
49071;SDS011;52656;52.610;10.236;2023-03-14T11:06:32;2.85;;;1.25;;
49071;SDS011;52656;52.610;10.236;2023-03-14T11:09:07;2.35;;;1.20;;
49071;SDS011;52656;52.610;10.236;2023-03-14T11:11:43;2.92;;;1.65;;
49071;SDS011;52656;52.610;10.236;2023-03-14T11:22:14;2.40;;;1.60;;
49071;SDS011;52656;52.610;10.236;2023-03-14T11:25:03;2.05;;;1.40;;
49071;SDS011;52656;52.610;10.236;2023-03-14T11:33:07;2.38;;;1.23;;
49071;SDS011;52656;52.610;10.236;2023-03-14T11:41:15;1.30;;;0.73;;
49071;SDS011;52656;52.610;10.236;2023-03-14T11:43:47;0.82;;;0.50;;
49071;SDS011;52656;52.610;10.236;2023-03-14T11:46:17;1.95;;;0.80;;
49071;SDS011;52656;52.610;10.236;2023-03-14T11:51:54;2.65;;;0.80;;
49071;SDS011;52656;52.610;10.236;2023-03-14T11:54:30;1.85;;;0.63;;
49071;SDS011;52656;52.610;10.236;2023-03-14T11:57:05;0.77;;;0.50;;
49071;SDS011;52656;52.610;10.236;2023-03-14T12:10:51;1.55;;;0.40;;
49071;SDS011;52656;52.610;10.236;2023-03-14T12:13:20;1.35;;;0.60;;
49071;SDS011;52656;52.610;10.236;2023-03-14T12:18:20;2.33;;;0.80;;
49071;SDS011;52656;52.610;10.236;2023-03-14T12:20:57;0.70;;;0.70;;
49071;SDS011;52656;52.610;10.236;2023-03-14T12:23:25;0.77;;;0.73;;
49071;SDS011;52656;52.610;10.236;2023-03-14T12:26:43;0.73;;;0.73;;
49071;SDS011;52656;52.610;10.236;2023-03-14T12:28:50;1.02;;;0.90;;
49071;SDS011;52656;52.610;10.236;2023-03-14T12:34:02;1.23;;;0.80;;
49071;SDS011;52656;52.610;10.236;2023-03-14T12:36:51;0.80;;;0.80;;
49071;SDS011;52656;52.610;10.236;2023-03-14T12:45:23;2.45;;;1.30;;
49071;SDS011;52656;52.610;10.236;2023-03-14T12:50:29;1.02;;;0.90;;
49071;SDS011;52656;52.610;10.236;2023-03-14T13:01:34;2.25;;;1.20;;
49071;SDS011;52656;52.610;10.236;2023-03-14T13:04:07;2.90;;;1.35;;
49071;SDS011;52656;52.610;10.236;2023-03-14T13:10:01;3.25;;;1.10;;
49071;SDS011;52656;52.610;10.236;2023-03-14T13:12:28;2.83;;;1.60;;
49071;SDS011;52656;52.610;10.236;2023-03-14T13:14:57;3.38;;;1.60;;
49071;SDS011;52656;52.610;10.236;2023-03-14T13:17:32;4.15;;;1.50;;
49071;SDS011;52656;52.610;10.236;2023-03-14T13:20:00;7.85;;;1.50;;
49071;SDS011;52656;52.610;10.236;2023-03-14T13:22:31;5.95;;;1.63;;
49071;SDS011;52656;52.610;10.236;2023-03-14T13:25:03;4.18;;;1.40;;
49071;SDS011;52656;52.610;10.236;2023-03-14T13:27:35;4.93;;;1.50;;
49071;SDS011;52656;52.610;10.236;2023-03-14T13:32:43;4.88;;;1.58;;
49071;SDS011;52656;52.610;10.236;2023-03-14T13:35:14;4.65;;;1.50;;
49071;SDS011;52656;52.610;10.236;2023-03-14T13:38:03;10.02;;;2.20;;
49071;SDS011;52656;52.610;10.236;2023-03-14T13:40:32;7.75;;;2.20;;
49071;SDS011;52656;52.610;10.236;2023-03-14T13:43:03;5.53;;;2.00;;
49071;SDS011;52656;52.610;10.236;2023-03-14T13:45:56;6.97;;;2.17;;
49071;SDS011;52656;52.610;10.236;2023-03-14T13:48:28;10.20;;;2.63;;
49071;SDS011;52656;52.610;10.236;2023-03-14T13:50:56;6.78;;;2.22;;
49071;SDS011;52656;52.610;10.236;2023-03-14T13:53:26;11.20;;;1.90;;
49071;SDS011;52656;52.610;10.236;2023-03-14T13:58:25;6.35;;;1.90;;
49071;SDS011;52656;52.610;10.236;2023-03-14T14:00:53;6.55;;;1.75;;
49071;SDS011;52656;52.610;10.236;2023-03-14T14:03:23;4.65;;;1.80;;
49071;SDS011;52656;52.610;10.236;2023-03-14T14:05:48;7.30;;;2.05;;
49071;SDS011;52656;52.610;10.236;2023-03-14T14:08:14;9.13;;;2.20;;
49071;SDS011;52656;52.610;10.236;2023-03-14T14:10:39;6.65;;;1.98;;
49071;SDS011;52656;52.610;10.236;2023-03-14T14:13:06;7.15;;;1.67;;
49071;SDS011;52656;52.610;10.236;2023-03-14T14:15:37;7.32;;;2.25;;
49071;SDS011;52656;52.610;10.236;2023-03-14T14:18:08;5.45;;;1.98;;
49071;SDS011;52656;52.610;10.236;2023-03-14T14:20:38;10.85;;;2.45;;
49071;SDS011;52656;52.610;10.236;2023-03-14T14:23:12;9.10;;;1.65;;
49071;SDS011;52656;52.610;10.236;2023-03-14T14:25:42;6.50;;;1.70;;
49071;SDS011;52656;52.610;10.236;2023-03-14T14:28:21;11.77;;;2.42;;
49071;SDS011;52656;52.610;10.236;2023-03-14T14:36:28;11.50;;;2.03;;
49071;SDS011;52656;52.610;10.236;2023-03-14T14:39:00;12.20;;;2.08;;
49071;SDS011;52656;52.610;10.236;2023-03-14T14:41:49;8.57;;;2.10;;
49071;SDS011;52656;52.610;10.236;2023-03-14T14:44:17;11.88;;;2.63;;
49071;SDS011;52656;52.610;10.236;2023-03-14T14:46:46;6.35;;;1.98;;
49071;SDS011;52656;52.610;10.236;2023-03-14T14:49:17;14.77;;;2.85;;
49071;SDS011;52656;52.610;10.236;2023-03-14T14:51:47;16.60;;;2.85;;
49071;SDS011;52656;52.610;10.236;2023-03-14T14:54:17;9.00;;;2.13;;
49071;SDS011;52656;52.610;10.236;2023-03-14T14:56:51;16.73;;;2.85;;
49071;SDS011;52656;52.610;10.236;2023-03-14T14:59:22;12.00;;;2.22;;
49071;SDS011;52656;52.610;10.236;2023-03-14T15:01:57;8.45;;;1.95;;
49071;SDS011;52656;52.610;10.236;2023-03-14T15:04:24;10.98;;;2.20;;
49071;SDS011;52656;52.610;10.236;2023-03-14T15:06:50;12.48;;;2.58;;
49071;SDS011;52656;52.610;10.236;2023-03-14T15:09:17;11.80;;;2.30;;
49071;SDS011;52656;52.610;10.236;2023-03-14T15:11:44;15.85;;;3.17;;
49071;SDS011;52656;52.610;10.236;2023-03-14T15:14:10;7.65;;;1.90;;
49071;SDS011;52656;52.610;10.236;2023-03-14T15:16:36;6.45;;;1.73;;
49071;SDS011;52656;52.610;10.236;2023-03-14T15:19:02;12.70;;;1.85;;
49071;SDS011;52656;52.610;10.236;2023-03-14T15:21:34;11.90;;;2.92;;
49071;SDS011;52656;52.610;10.236;2023-03-14T15:23:59;8.73;;;2.08;;
49071;SDS011;52656;52.610;10.236;2023-03-14T15:26:26;10.23;;;2.08;;
49071;SDS011;52656;52.610;10.236;2023-03-14T15:28:52;7.97;;;2.15;;
49071;SDS011;52656;52.610;10.236;2023-03-14T15:31:19;9.90;;;2.00;;
49071;SDS011;52656;52.610;10.236;2023-03-14T15:33:46;8.18;;;1.60;;
49071;SDS011;52656;52.610;10.236;2023-03-14T15:38:50;11.13;;;2.20;;
49071;SDS011;52656;52.610;10.236;2023-03-14T15:41:17;8.63;;;1.90;;
49071;SDS011;52656;52.610;10.236;2023-03-14T15:43:43;8.75;;;2.03;;
49071;SDS011;52656;52.610;10.236;2023-03-14T15:46:09;7.55;;;2.05;;
49071;SDS011;52656;52.610;10.236;2023-03-14T15:48:35;9.45;;;1.98;;
49071;SDS011;52656;52.610;10.236;2023-03-14T15:51:00;10.73;;;2.28;;
49071;SDS011;52656;52.610;10.236;2023-03-14T15:53:26;16.17;;;2.63;;
49071;SDS011;52656;52.610;10.236;2023-03-14T15:55:51;12.82;;;2.45;;
49071;SDS011;52656;52.610;10.236;2023-03-14T15:58:17;13.40;;;1.90;;
49071;SDS011;52656;52.610;10.236;2023-03-14T16:00:43;9.98;;;2.42;;
49071;SDS011;52656;52.610;10.236;2023-03-14T16:03:09;7.57;;;1.90;;
49071;SDS011;52656;52.610;10.236;2023-03-14T16:05:35;8.32;;;2.33;;
49071;SDS011;52656;52.610;10.236;2023-03-14T16:08:01;8.52;;;2.15;;
49071;SDS011;52656;52.610;10.236;2023-03-14T16:10:28;9.73;;;1.90;;
49071;SDS011;52656;52.610;10.236;2023-03-14T16:12:53;6.72;;;1.98;;
49071;SDS011;52656;52.610;10.236;2023-03-14T16:15:19;8.82;;;2.17;;
49071;SDS011;52656;52.610;10.236;2023-03-14T16:17:44;12.27;;;2.25;;
49071;SDS011;52656;52.610;10.236;2023-03-14T16:20:10;8.90;;;2.40;;
49071;SDS011;52656;52.610;10.236;2023-03-14T16:25:02;7.30;;;1.85;;
49071;SDS011;52656;52.610;10.236;2023-03-14T16:27:28;12.43;;;2.42;;
49071;SDS011;52656;52.610;10.236;2023-03-14T16:29:55;7.40;;;2.47;;
49071;SDS011;52656;52.610;10.236;2023-03-14T16:32:21;7.10;;;2.13;;
49071;SDS011;52656;52.610;10.236;2023-03-14T16:34:46;12.43;;;2.20;;
49071;SDS011;52656;52.610;10.236;2023-03-14T16:37:12;7.72;;;2.00;;
49071;SDS011;52656;52.610;10.236;2023-03-14T16:39:38;9.48;;;2.35;;
49071;SDS011;52656;52.610;10.236;2023-03-14T16:42:03;6.63;;;1.80;;
49071;SDS011;52656;52.610;10.236;2023-03-14T16:44:28;6.78;;;1.60;;
49071;SDS011;52656;52.610;10.236;2023-03-14T16:46:55;5.72;;;1.50;;
49071;SDS011;52656;52.610;10.236;2023-03-14T16:49:20;10.02;;;1.85;;
49071;SDS011;52656;52.610;10.236;2023-03-14T16:51:46;11.43;;;2.17;;
49071;SDS011;52656;52.610;10.236;2023-03-14T16:54:11;7.57;;;1.98;;
49071;SDS011;52656;52.610;10.236;2023-03-14T16:56:37;5.32;;;1.63;;
49071;SDS011;52656;52.610;10.236;2023-03-14T16:59:02;6.90;;;2.50;;
49071;SDS011;52656;52.610;10.236;2023-03-14T17:01:27;4.72;;;1.42;;
49071;SDS011;52656;52.610;10.236;2023-03-14T17:03:53;7.10;;;1.20;;
49071;SDS011;52656;52.610;10.236;2023-03-14T17:06:19;5.85;;;1.98;;
49071;SDS011;52656;52.610;10.236;2023-03-14T17:08:50;6.60;;;1.73;;
49071;SDS011;52656;52.610;10.236;2023-03-14T17:11:16;6.88;;;1.60;;
49071;SDS011;52656;52.610;10.236;2023-03-14T17:13:42;8.00;;;1.85;;
49071;SDS011;52656;52.610;10.236;2023-03-14T17:16:08;6.45;;;1.73;;
49071;SDS011;52656;52.610;10.236;2023-03-14T17:18:34;9.75;;;2.20;;
49071;SDS011;52656;52.610;10.236;2023-03-14T17:21:00;8.45;;;1.73;;
49071;SDS011;52656;52.610;10.236;2023-03-14T17:23:26;5.47;;;1.67;;
49071;SDS011;52656;52.610;10.236;2023-03-14T17:25:53;7.78;;;1.50;;
49071;SDS011;52656;52.610;10.236;2023-03-14T17:28:19;5.40;;;1.80;;
49071;SDS011;52656;52.610;10.236;2023-03-14T17:30:46;8.68;;;2.38;;
49071;SDS011;52656;52.610;10.236;2023-03-14T17:33:12;8.50;;;2.10;;
49071;SDS011;52656;52.610;10.236;2023-03-14T17:35:37;9.13;;;1.83;;
49071;SDS011;52656;52.610;10.236;2023-03-14T17:38:03;9.50;;;2.53;;
49071;SDS011;52656;52.610;10.236;2023-03-14T17:40:29;9.00;;;1.83;;
49071;SDS011;52656;52.610;10.236;2023-03-14T17:42:54;10.75;;;2.75;;
49071;SDS011;52656;52.610;10.236;2023-03-14T17:45:19;12.50;;;2.30;;
49071;SDS011;52656;52.610;10.236;2023-03-14T17:47:45;6.45;;;1.80;;
49071;SDS011;52656;52.610;10.236;2023-03-14T17:50:11;8.50;;;1.95;;
49071;SDS011;52656;52.610;10.236;2023-03-14T17:55:03;9.52;;;1.85;;
49071;SDS011;52656;52.610;10.236;2023-03-14T17:57:30;7.25;;;2.08;;
49071;SDS011;52656;52.610;10.236;2023-03-14T17:59:56;4.63;;;1.50;;
49071;SDS011;52656;52.610;10.236;2023-03-14T18:02:22;12.32;;;2.22;;
49071;SDS011;52656;52.610;10.236;2023-03-14T18:04:49;7.72;;;1.75;;
49071;SDS011;52656;52.610;10.236;2023-03-14T18:07:16;5.25;;;1.73;;
49071;SDS011;52656;52.610;10.236;2023-03-14T18:09:42;8.57;;;1.85;;
49071;SDS011;52656;52.610;10.236;2023-03-14T18:12:07;8.73;;;1.88;;
49071;SDS011;52656;52.610;10.236;2023-03-14T18:14:33;11.02;;;1.80;;
49071;SDS011;52656;52.610;10.236;2023-03-14T18:16:59;10.02;;;2.17;;
49071;SDS011;52656;52.610;10.236;2023-03-14T18:19:25;6.80;;;1.73;;
49071;SDS011;52656;52.610;10.236;2023-03-14T18:21:51;9.90;;;1.90;;
49071;SDS011;52656;52.610;10.236;2023-03-14T18:24:17;7.72;;;2.25;;
49071;SDS011;52656;52.610;10.236;2023-03-14T18:26:43;10.50;;;2.30;;
49071;SDS011;52656;52.610;10.236;2023-03-14T18:29:09;9.25;;;1.90;;
49071;SDS011;52656;52.610;10.236;2023-03-14T18:31:38;11.68;;;2.13;;
49071;SDS011;52656;52.610;10.236;2023-03-14T18:34:07;6.68;;;1.65;;
49071;SDS011;52656;52.610;10.236;2023-03-14T18:36:34;10.55;;;2.40;;
49071;SDS011;52656;52.610;10.236;2023-03-14T18:38:59;9.97;;;1.83;;
49071;SDS011;52656;52.610;10.236;2023-03-14T18:41:26;9.32;;;2.28;;